sensor_id;sensor_type;location;lat;lon;timestamp;P1;durP1;ratioP1;P2;durP2;ratioP2
2854;SDS011;1435;49.472;10.940;2023-05-10T00:03:40;7.60;;;6.87;;
2854;SDS011;1435;49.472;10.940;2023-05-10T00:08:41;7.30;;;6.63;;
2854;SDS011;1435;49.472;10.940;2023-05-10T00:13:44;7.77;;;6.90;;
2854;SDS011;1435;49.472;10.940;2023-05-10T00:18:46;7.30;;;6.60;;
2854;SDS011;1435;49.472;10.940;2023-05-10T00:23:48;7.17;;;6.47;;
2854;SDS011;1435;49.472;10.940;2023-05-10T00:28:51;8.67;;;6.77;;
2854;SDS011;1435;49.472;10.940;2023-05-10T00:33:53;9.37;;;8.37;;
2854;SDS011;1435;49.472;10.940;2023-05-10T00:38:54;7.33;;;6.63;;
2854;SDS011;1435;49.472;10.940;2023-05-10T00:43:57;7.23;;;6.43;;
2854;SDS011;1435;49.472;10.940;2023-05-10T00:48:59;7.60;;;6.90;;
2854;SDS011;1435;49.472;10.940;2023-05-10T00:54:01;7.70;;;7.00;;
2854;SDS011;1435;49.472;10.940;2023-05-10T00:59:05;8.23;;;7.33;;
2854;SDS011;1435;49.472;10.940;2023-05-10T01:04:06;7.50;;;6.80;;
2854;SDS011;1435;49.472;10.940;2023-05-10T01:09:09;9.37;;;6.53;;
2854;SDS011;1435;49.472;10.940;2023-05-10T01:14:12;7.50;;;6.80;;
2854;SDS011;1435;49.472;10.940;2023-05-10T01:19:18;7.43;;;6.57;;
2854;SDS011;1435;49.472;10.940;2023-05-10T01:30:11;6.93;;;6.33;;
2854;SDS011;1435;49.472;10.940;2023-05-10T01:35:30;7.93;;;7.20;;
2854;SDS011;1435;49.472;10.940;2023-05-10T01:40:39;7.30;;;6.60;;
2854;SDS011;1435;49.472;10.940;2023-05-10T01:45:50;8.00;;;6.33;;
2854;SDS011;1435;49.472;10.940;2023-05-10T01:51:09;7.00;;;6.13;;
2854;SDS011;1435;49.472;10.940;2023-05-10T01:56:12;6.43;;;5.83;;
2854;SDS011;1435;49.472;10.940;2023-05-10T02:01:14;6.33;;;5.70;;
2854;SDS011;1435;49.472;10.940;2023-05-10T02:06:19;6.23;;;5.30;;
2854;SDS011;1435;49.472;10.940;2023-05-10T02:11:23;6.13;;;5.63;;
2854;SDS011;1435;49.472;10.940;2023-05-10T02:16:26;5.50;;;5.00;;
2854;SDS011;1435;49.472;10.940;2023-05-10T02:21:32;5.43;;;4.97;;
2854;SDS011;1435;49.472;10.940;2023-05-10T02:26:35;5.27;;;4.83;;
2854;SDS011;1435;49.472;10.940;2023-05-10T02:31:38;6.57;;;4.70;;
2854;SDS011;1435;49.472;10.940;2023-05-10T02:36:44;4.37;;;4.07;;
2854;SDS011;1435;49.472;10.940;2023-05-10T02:41:46;5.27;;;4.30;;
2854;SDS011;1435;49.472;10.940;2023-05-10T02:46:50;5.10;;;4.60;;
2854;SDS011;1435;49.472;10.940;2023-05-10T02:51:55;5.07;;;4.60;;
2854;SDS011;1435;49.472;10.940;2023-05-10T02:57:01;5.00;;;4.60;;
2854;SDS011;1435;49.472;10.940;2023-05-10T03:02:06;3.10;;;2.90;;
2854;SDS011;1435;49.472;10.940;2023-05-10T03:07:10;3.23;;;2.93;;
2854;SDS011;1435;49.472;10.940;2023-05-10T03:12:13;2.93;;;2.73;;
2854;SDS011;1435;49.472;10.940;2023-05-10T03:17:23;1.93;;;1.83;;
2854;SDS011;1435;49.472;10.940;2023-05-10T03:22:32;1.50;;;1.33;;
2854;SDS011;1435;49.472;10.940;2023-05-10T03:27:39;0.80;;;0.80;;
2854;SDS011;1435;49.472;10.940;2023-05-10T03:32:42;1.33;;;1.23;;
2854;SDS011;1435;49.472;10.940;2023-05-10T03:37:45;1.00;;;0.90;;
2854;SDS011;1435;49.472;10.940;2023-05-10T03:42:47;0.97;;;0.90;;
2854;SDS011;1435;49.472;10.940;2023-05-10T03:47:49;0.60;;;0.60;;
2854;SDS011;1435;49.472;10.940;2023-05-10T03:52:52;1.17;;;0.77;;
2854;SDS011;1435;49.472;10.940;2023-05-10T03:58:01;0.90;;;0.90;;
2854;SDS011;1435;49.472;10.940;2023-05-10T04:03:03;0.70;;;0.70;;
2854;SDS011;1435;49.472;10.940;2023-05-10T04:08:06;0.70;;;0.70;;
2854;SDS011;1435;49.472;10.940;2023-05-10T04:13:08;0.63;;;0.63;;
2854;SDS011;1435;49.472;10.940;2023-05-10T04:18:09;0.60;;;0.50;;
2854;SDS011;1435;49.472;10.940;2023-05-10T04:23:12;1.23;;;0.67;;
2854;SDS011;1435;49.472;10.940;2023-05-10T04:28:16;0.50;;;0.50;;
2854;SDS011;1435;49.472;10.940;2023-05-10T04:33:18;0.73;;;0.67;;
2854;SDS011;1435;49.472;10.940;2023-05-10T04:38:21;0.57;;;0.57;;
2854;SDS011;1435;49.472;10.940;2023-05-10T04:43:23;1.80;;;0.70;;
2854;SDS011;1435;49.472;10.940;2023-05-10T04:48:24;0.53;;;0.50;;
2854;SDS011;1435;49.472;10.940;2023-05-10T04:53:28;1.37;;;0.70;;
2854;SDS011;1435;49.472;10.940;2023-05-10T04:58:29;0.90;;;0.90;;
2854;SDS011;1435;49.472;10.940;2023-05-10T05:03:31;1.50;;;0.93;;
2854;SDS011;1435;49.472;10.940;2023-05-10T05:08:34;0.83;;;0.83;;
2854;SDS011;1435;49.472;10.940;2023-05-10T05:13:36;0.70;;;0.70;;
2854;SDS011;1435;49.472;10.940;2023-05-10T05:18:38;0.90;;;0.90;;
2854;SDS011;1435;49.472;10.940;2023-05-10T05:23:41;1.10;;;0.90;;
2854;SDS011;1435;49.472;10.940;2023-05-10T05:28:43;1.10;;;0.77;;
2854;SDS011;1435;49.472;10.940;2023-05-10T05:33:45;0.77;;;0.77;;
2854;SDS011;1435;49.472;10.940;2023-05-10T05:38:48;1.17;;;1.07;;
2854;SDS011;1435;49.472;10.940;2023-05-10T05:43:50;1.17;;;1.07;;
2854;SDS011;1435;49.472;10.940;2023-05-10T05:48:52;1.60;;;1.10;;
2854;SDS011;1435;49.472;10.940;2023-05-10T05:53:55;1.60;;;1.50;;
2854;SDS011;1435;49.472;10.940;2023-05-10T05:58:56;1.30;;;1.20;;
2854;SDS011;1435;49.472;10.940;2023-05-10T06:03:58;1.53;;;1.37;;
2854;SDS011;1435;49.472;10.940;2023-05-10T06:09:01;1.93;;;1.43;;
2854;SDS011;1435;49.472;10.940;2023-05-10T06:14:03;1.57;;;1.23;;
2854;SDS011;1435;49.472;10.940;2023-05-10T06:19:07;1.80;;;1.70;;
2854;SDS011;1435;49.472;10.940;2023-05-10T06:24:10;2.83;;;1.50;;
2854;SDS011;1435;49.472;10.940;2023-05-10T06:29:11;1.37;;;1.10;;
2854;SDS011;1435;49.472;10.940;2023-05-10T06:34:15;1.80;;;1.70;;
2854;SDS011;1435;49.472;10.940;2023-05-10T06:39:18;2.43;;;1.13;;
2854;SDS011;1435;49.472;10.940;2023-05-10T06:44:19;2.10;;;1.53;;
2854;SDS011;1435;49.472;10.940;2023-05-10T06:49:21;2.70;;;1.60;;
2854;SDS011;1435;49.472;10.940;2023-05-10T06:54:24;1.63;;;1.50;;
2854;SDS011;1435;49.472;10.940;2023-05-10T06:59:26;2.17;;;1.80;;
2854;SDS011;1435;49.472;10.940;2023-05-10T07:04:28;2.20;;;1.60;;
2854;SDS011;1435;49.472;10.940;2023-05-10T07:09:31;1.60;;;1.50;;
2854;SDS011;1435;49.472;10.940;2023-05-10T07:14:32;1.63;;;1.53;;
2854;SDS011;1435;49.472;10.940;2023-05-10T07:19:34;1.70;;;1.27;;
2854;SDS011;1435;49.472;10.940;2023-05-10T07:24:37;1.40;;;1.30;;
2854;SDS011;1435;49.472;10.940;2023-05-10T07:29:39;1.70;;;1.60;;
2854;SDS011;1435;49.472;10.940;2023-05-10T07:34:41;1.60;;;1.50;;
2854;SDS011;1435;49.472;10.940;2023-05-10T07:39:44;2.70;;;2.47;;
2854;SDS011;1435;49.472;10.940;2023-05-10T07:44:46;2.20;;;2.00;;
2854;SDS011;1435;49.472;10.940;2023-05-10T07:49:47;2.00;;;1.83;;
2854;SDS011;1435;49.472;10.940;2023-05-10T07:54:50;3.07;;;2.17;;
2854;SDS011;1435;49.472;10.940;2023-05-10T07:59:52;2.67;;;2.40;;
2854;SDS011;1435;49.472;10.940;2023-05-10T08:04:54;2.10;;;2.00;;
2854;SDS011;1435;49.472;10.940;2023-05-10T08:09:57;2.20;;;2.07;;
2854;SDS011;1435;49.472;10.940;2023-05-10T08:14:59;3.00;;;2.73;;
2854;SDS011;1435;49.472;10.940;2023-05-10T08:20:00;2.20;;;1.90;;
2854;SDS011;1435;49.472;10.940;2023-05-10T08:25:04;2.87;;;2.67;;
2854;SDS011;1435;49.472;10.940;2023-05-10T08:30:07;2.40;;;2.20;;
2854;SDS011;1435;49.472;10.940;2023-05-10T08:35:09;2.70;;;2.47;;
2854;SDS011;1435;49.472;10.940;2023-05-10T08:40:13;1.90;;;1.80;;
2854;SDS011;1435;49.472;10.940;2023-05-10T08:45:16;2.10;;;2.00;;
2854;SDS011;1435;49.472;10.940;2023-05-10T08:50:19;4.77;;;1.80;;
2854;SDS011;1435;49.472;10.940;2023-05-10T08:55:25;2.40;;;2.20;;
2854;SDS011;1435;49.472;10.940;2023-05-10T09:00:27;3.10;;;2.50;;
2854;SDS011;1435;49.472;10.940;2023-05-10T09:05:29;2.97;;;2.70;;
2854;SDS011;1435;49.472;10.940;2023-05-10T09:10:33;3.97;;;3.00;;
2854;SDS011;1435;49.472;10.940;2023-05-10T09:15:35;3.00;;;2.70;;
2854;SDS011;1435;49.472;10.940;2023-05-10T09:20:36;2.77;;;2.60;;
2854;SDS011;1435;49.472;10.940;2023-05-10T09:25:39;3.20;;;2.40;;
2854;SDS011;1435;49.472;10.940;2023-05-10T09:30:42;2.60;;;2.50;;
2854;SDS011;1435;49.472;10.940;2023-05-10T09:35:44;3.70;;;2.90;;
2854;SDS011;1435;49.472;10.940;2023-05-10T09:40:51;2.47;;;2.27;;
2854;SDS011;1435;49.472;10.940;2023-05-10T09:45:55;4.90;;;2.37;;
2854;SDS011;1435;49.472;10.940;2023-05-10T09:50:57;2.33;;;2.13;;
2854;SDS011;1435;49.472;10.940;2023-05-10T09:56:00;2.40;;;2.00;;
2854;SDS011;1435;49.472;10.940;2023-05-10T10:01:02;2.07;;;1.90;;
2854;SDS011;1435;49.472;10.940;2023-05-10T10:06:04;2.70;;;2.27;;
2854;SDS011;1435;49.472;10.940;2023-05-10T10:11:10;4.60;;;2.00;;
2854;SDS011;1435;49.472;10.940;2023-05-10T10:16:12;1.40;;;1.30;;
2854;SDS011;1435;49.472;10.940;2023-05-10T10:21:14;4.20;;;1.67;;
2854;SDS011;1435;49.472;10.940;2023-05-10T10:26:18;3.63;;;1.60;;
2854;SDS011;1435;49.472;10.940;2023-05-10T10:31:23;1.80;;;1.70;;
2854;SDS011;1435;49.472;10.940;2023-05-10T10:36:33;2.37;;;1.90;;
2854;SDS011;1435;49.472;10.940;2023-05-10T10:41:49;1.97;;;1.70;;
2854;SDS011;1435;49.472;10.940;2023-05-10T10:46:58;1.70;;;1.60;;
2854;SDS011;1435;49.472;10.940;2023-05-10T10:52:13;2.10;;;1.70;;
2854;SDS011;1435;49.472;10.940;2023-05-10T10:57:24;1.93;;;1.57;;
2854;SDS011;1435;49.472;10.940;2023-05-10T11:02:32;2.43;;;1.80;;
2854;SDS011;1435;49.472;10.940;2023-05-10T11:07:35;2.33;;;2.13;;
2854;SDS011;1435;49.472;10.940;2023-05-10T11:12:49;2.33;;;2.13;;
2854;SDS011;1435;49.472;10.940;2023-05-10T11:17:52;1.87;;;1.77;;
2854;SDS011;1435;49.472;10.940;2023-05-10T11:22:55;1.90;;;1.80;;
2854;SDS011;1435;49.472;10.940;2023-05-10T11:27:58;1.90;;;1.80;;
2854;SDS011;1435;49.472;10.940;2023-05-10T11:33:05;2.20;;;1.97;;
2854;SDS011;1435;49.472;10.940;2023-05-10T11:38:07;1.87;;;1.63;;
2854;SDS011;1435;49.472;10.940;2023-05-10T11:43:11;3.00;;;2.30;;
2854;SDS011;1435;49.472;10.940;2023-05-10T11:48:13;2.30;;;1.90;;
2854;SDS011;1435;49.472;10.940;2023-05-10T11:53:16;2.60;;;2.40;;
2854;SDS011;1435;49.472;10.940;2023-05-10T11:58:22;2.27;;;1.87;;
2854;SDS011;1435;49.472;10.940;2023-05-10T12:03:24;1.97;;;1.77;;
2854;SDS011;1435;49.472;10.940;2023-05-10T12:08:26;1.70;;;1.50;;
2854;SDS011;1435;49.472;10.940;2023-05-10T12:13:30;2.20;;;1.50;;
2854;SDS011;1435;49.472;10.940;2023-05-10T12:18:32;1.70;;;1.40;;
2854;SDS011;1435;49.472;10.940;2023-05-10T12:23:34;1.40;;;1.30;;
2854;SDS011;1435;49.472;10.940;2023-05-10T12:28:38;3.40;;;1.63;;
2854;SDS011;1435;49.472;10.940;2023-05-10T12:33:40;1.57;;;1.47;;
2854;SDS011;1435;49.472;10.940;2023-05-10T12:38:43;1.47;;;1.20;;
2854;SDS011;1435;49.472;10.940;2023-05-10T12:43:49;1.73;;;1.63;;
2854;SDS011;1435;49.472;10.940;2023-05-10T12:48:50;1.50;;;1.40;;
2854;SDS011;1435;49.472;10.940;2023-05-10T12:53:54;1.87;;;1.50;;
2854;SDS011;1435;49.472;10.940;2023-05-10T12:58:57;1.63;;;1.53;;
2854;SDS011;1435;49.472;10.940;2023-05-10T13:03:59;1.57;;;1.37;;
2854;SDS011;1435;49.472;10.940;2023-05-10T13:09:01;1.50;;;1.40;;
2854;SDS011;1435;49.472;10.940;2023-05-10T13:14:04;1.33;;;1.23;;
2854;SDS011;1435;49.472;10.940;2023-05-10T13:19:06;2.30;;;1.77;;
2854;SDS011;1435;49.472;10.940;2023-05-10T13:24:08;1.77;;;1.30;;
2854;SDS011;1435;49.472;10.940;2023-05-10T13:29:11;1.43;;;1.27;;
2854;SDS011;1435;49.472;10.940;2023-05-10T13:34:13;1.67;;;0.83;;
2854;SDS011;1435;49.472;10.940;2023-05-10T13:39:15;1.00;;;0.90;;
2854;SDS011;1435;49.472;10.940;2023-05-10T13:44:19;1.50;;;0.87;;
2854;SDS011;1435;49.472;10.940;2023-05-10T13:49:21;1.40;;;1.30;;
2854;SDS011;1435;49.472;10.940;2023-05-10T13:54:23;7.20;;;2.20;;
2854;SDS011;1435;49.472;10.940;2023-05-10T13:59:30;1.87;;;1.10;;
2854;SDS011;1435;49.472;10.940;2023-05-10T14:04:32;2.33;;;1.33;;
2854;SDS011;1435;49.472;10.940;2023-05-10T14:09:35;1.63;;;1.00;;
2854;SDS011;1435;49.472;10.940;2023-05-10T14:14:38;1.30;;;1.13;;
2854;SDS011;1435;49.472;10.940;2023-05-10T14:19:40;1.47;;;1.37;;
2854;SDS011;1435;49.472;10.940;2023-05-10T14:24:41;1.70;;;1.60;;
2854;SDS011;1435;49.472;10.940;2023-05-10T14:29:48;1.70;;;1.60;;
2854;SDS011;1435;49.472;10.940;2023-05-10T14:34:49;2.53;;;1.67;;
2854;SDS011;1435;49.472;10.940;2023-05-10T14:39:51;1.50;;;1.40;;
2854;SDS011;1435;49.472;10.940;2023-05-10T14:44:55;2.70;;;2.30;;
2854;SDS011;1435;49.472;10.940;2023-05-10T14:49:57;1.90;;;1.80;;
2854;SDS011;1435;49.472;10.940;2023-05-10T14:54:59;1.70;;;1.60;;
2854;SDS011;1435;49.472;10.940;2023-05-10T15:00:03;1.40;;;1.30;;
2854;SDS011;1435;49.472;10.940;2023-05-10T15:05:05;1.43;;;0.80;;
2854;SDS011;1435;49.472;10.940;2023-05-10T15:10:08;0.80;;;0.70;;
2854;SDS011;1435;49.472;10.940;2023-05-10T15:15:11;0.60;;;0.60;;
2854;SDS011;1435;49.472;10.940;2023-05-10T15:20:13;1.90;;;0.67;;
2854;SDS011;1435;49.472;10.940;2023-05-10T15:25:15;0.70;;;0.70;;
2854;SDS011;1435;49.472;10.940;2023-05-10T15:30:18;1.37;;;0.83;;
2854;SDS011;1435;49.472;10.940;2023-05-10T15:35:20;2.40;;;1.33;;
2854;SDS011;1435;49.472;10.940;2023-05-10T15:40:22;1.27;;;1.17;;
2854;SDS011;1435;49.472;10.940;2023-05-10T15:45:25;3.00;;;1.40;;
2854;SDS011;1435;49.472;10.940;2023-05-10T15:50:26;1.60;;;1.20;;
2854;SDS011;1435;49.472;10.940;2023-05-10T15:55:28;1.90;;;1.80;;
2854;SDS011;1435;49.472;10.940;2023-05-10T16:00:31;2.10;;;2.00;;
2854;SDS011;1435;49.472;10.940;2023-05-10T16:05:33;2.20;;;1.53;;
2854;SDS011;1435;49.472;10.940;2023-05-10T16:10:35;2.20;;;2.10;;
2854;SDS011;1435;49.472;10.940;2023-05-10T16:15:38;1.83;;;1.73;;
2854;SDS011;1435;49.472;10.940;2023-05-10T16:20:40;2.60;;;2.37;;
2854;SDS011;1435;49.472;10.940;2023-05-10T16:25:42;2.10;;;1.87;;
2854;SDS011;1435;49.472;10.940;2023-05-10T16:30:45;1.93;;;1.83;;
2854;SDS011;1435;49.472;10.940;2023-05-10T16:40:48;1.83;;;1.67;;
2854;SDS011;1435;49.472;10.940;2023-05-10T16:45:51;1.70;;;1.60;;
2854;SDS011;1435;49.472;10.940;2023-05-10T16:50:53;1.40;;;1.20;;
2854;SDS011;1435;49.472;10.940;2023-05-10T16:55:55;3.20;;;1.60;;
2854;SDS011;1435;49.472;10.940;2023-05-10T17:00:58;1.57;;;1.37;;
2854;SDS011;1435;49.472;10.940;2023-05-10T17:06:00;1.50;;;1.40;;
2854;SDS011;1435;49.472;10.940;2023-05-10T17:11:02;2.10;;;1.30;;
2854;SDS011;1435;49.472;10.940;2023-05-10T17:16:05;1.50;;;1.40;;
2854;SDS011;1435;49.472;10.940;2023-05-10T17:21:08;1.40;;;1.23;;
2854;SDS011;1435;49.472;10.940;2023-05-10T17:26:10;1.20;;;1.10;;
2854;SDS011;1435;49.472;10.940;2023-05-10T17:31:13;1.60;;;1.50;;
2854;SDS011;1435;49.472;10.940;2023-05-10T17:36:14;2.27;;;1.80;;
2854;SDS011;1435;49.472;10.940;2023-05-10T17:41:16;2.63;;;1.80;;
2854;SDS011;1435;49.472;10.940;2023-05-10T17:46:19;2.73;;;1.60;;
2854;SDS011;1435;49.472;10.940;2023-05-10T17:51:21;1.83;;;1.70;;
2854;SDS011;1435;49.472;10.940;2023-05-10T17:56:23;2.33;;;1.70;;
2854;SDS011;1435;49.472;10.940;2023-05-10T18:01:26;1.53;;;1.43;;
2854;SDS011;1435;49.472;10.940;2023-05-10T18:06:28;1.80;;;1.70;;
2854;SDS011;1435;49.472;10.940;2023-05-10T18:11:29;1.87;;;1.70;;
2854;SDS011;1435;49.472;10.940;2023-05-10T18:16:32;2.63;;;1.70;;
2854;SDS011;1435;49.472;10.940;2023-05-10T18:21:34;1.77;;;1.60;;
2854;SDS011;1435;49.472;10.940;2023-05-10T18:26:36;1.87;;;1.77;;
2854;SDS011;1435;49.472;10.940;2023-05-10T18:31:39;3.63;;;3.33;;
2854;SDS011;1435;49.472;10.940;2023-05-10T18:36:41;1.70;;;1.60;;
2854;SDS011;1435;49.472;10.940;2023-05-10T18:41:43;2.70;;;2.13;;
2854;SDS011;1435;49.472;10.940;2023-05-10T18:46:46;2.53;;;1.80;;
2854;SDS011;1435;49.472;10.940;2023-05-10T18:51:51;2.00;;;1.90;;
2854;SDS011;1435;49.472;10.940;2023-05-10T18:56:52;3.10;;;2.80;;
2854;SDS011;1435;49.472;10.940;2023-05-10T19:01:57;2.43;;;1.80;;
2854;SDS011;1435;49.472;10.940;2023-05-10T19:06:59;2.60;;;2.40;;
2854;SDS011;1435;49.472;10.940;2023-05-10T19:12:01;2.00;;;1.90;;
2854;SDS011;1435;49.472;10.940;2023-05-10T19:17:04;2.10;;;2.00;;
2854;SDS011;1435;49.472;10.940;2023-05-10T19:22:05;3.50;;;1.70;;
2854;SDS011;1435;49.472;10.940;2023-05-10T19:27:07;2.00;;;1.80;;
2854;SDS011;1435;49.472;10.940;2023-05-10T19:32:11;1.63;;;1.50;;
2854;SDS011;1435;49.472;10.940;2023-05-10T19:37:13;2.10;;;1.90;;
2854;SDS011;1435;49.472;10.940;2023-05-10T19:42:14;1.67;;;1.57;;
2854;SDS011;1435;49.472;10.940;2023-05-10T19:47:18;2.33;;;1.97;;
2854;SDS011;1435;49.472;10.940;2023-05-10T19:52:19;2.30;;;2.20;;
2854;SDS011;1435;49.472;10.940;2023-05-10T19:57:21;2.43;;;2.23;;
2854;SDS011;1435;49.472;10.940;2023-05-10T20:02:24;2.37;;;2.20;;
2854;SDS011;1435;49.472;10.940;2023-05-10T20:07:26;2.20;;;2.00;;
2854;SDS011;1435;49.472;10.940;2023-05-10T20:12:28;2.37;;;2.17;;
2854;SDS011;1435;49.472;10.940;2023-05-10T20:17:31;2.73;;;2.40;;
2854;SDS011;1435;49.472;10.940;2023-05-10T20:22:32;3.07;;;2.87;;
2854;SDS011;1435;49.472;10.940;2023-05-10T20:27:34;3.43;;;3.17;;
2854;SDS011;1435;49.472;10.940;2023-05-10T20:32:37;3.37;;;2.80;;
2854;SDS011;1435;49.472;10.940;2023-05-10T20:37:39;3.00;;;2.10;;
2854;SDS011;1435;49.472;10.940;2023-05-10T20:42:41;2.60;;;2.40;;
2854;SDS011;1435;49.472;10.940;2023-05-10T20:47:44;3.27;;;2.40;;
2854;SDS011;1435;49.472;10.940;2023-05-10T20:52:46;3.07;;;2.87;;
2854;SDS011;1435;49.472;10.940;2023-05-10T20:57:49;4.00;;;2.73;;
2854;SDS011;1435;49.472;10.940;2023-05-10T21:02:53;4.30;;;2.90;;
2854;SDS011;1435;49.472;10.940;2023-05-10T21:07:55;2.90;;;2.70;;
2854;SDS011;1435;49.472;10.940;2023-05-10T21:12:57;3.10;;;2.90;;
2854;SDS011;1435;49.472;10.940;2023-05-10T21:18:00;6.53;;;3.60;;
2854;SDS011;1435;49.472;10.940;2023-05-10T21:23:02;3.10;;;2.90;;
2854;SDS011;1435;49.472;10.940;2023-05-10T21:28:03;3.57;;;3.27;;
2854;SDS011;1435;49.472;10.940;2023-05-10T21:33:07;4.73;;;3.20;;
2854;SDS011;1435;49.472;10.940;2023-05-10T21:38:08;3.80;;;3.40;;
2854;SDS011;1435;49.472;10.940;2023-05-10T21:43:10;4.13;;;3.80;;
2854;SDS011;1435;49.472;10.940;2023-05-10T21:48:13;3.90;;;3.27;;
2854;SDS011;1435;49.472;10.940;2023-05-10T21:53:15;3.50;;;3.20;;
2854;SDS011;1435;49.472;10.940;2023-05-10T21:58:17;5.00;;;4.03;;
2854;SDS011;1435;49.472;10.940;2023-05-10T22:03:20;3.80;;;3.50;;
2854;SDS011;1435;49.472;10.940;2023-05-10T22:08:22;3.60;;;3.30;;
2854;SDS011;1435;49.472;10.940;2023-05-10T22:13:24;6.83;;;3.53;;
2854;SDS011;1435;49.472;10.940;2023-05-10T22:18:27;3.87;;;3.47;;
2854;SDS011;1435;49.472;10.940;2023-05-10T22:23:29;5.40;;;3.50;;
2854;SDS011;1435;49.472;10.940;2023-05-10T22:28:31;4.40;;;3.80;;
2854;SDS011;1435;49.472;10.940;2023-05-10T22:33:34;4.30;;;3.90;;
2854;SDS011;1435;49.472;10.940;2023-05-10T22:38:35;4.00;;;3.70;;
2854;SDS011;1435;49.472;10.940;2023-05-10T22:43:37;4.00;;;3.57;;
2854;SDS011;1435;49.472;10.940;2023-05-10T22:48:40;4.17;;;3.77;;
2854;SDS011;1435;49.472;10.940;2023-05-10T22:53:42;3.40;;;3.10;;
2854;SDS011;1435;49.472;10.940;2023-05-10T22:58:44;4.50;;;3.47;;
2854;SDS011;1435;49.472;10.940;2023-05-10T23:03:47;3.90;;;3.60;;
2854;SDS011;1435;49.472;10.940;2023-05-10T23:08:50;4.90;;;3.37;;
2854;SDS011;1435;49.472;10.940;2023-05-10T23:13:51;4.27;;;3.97;;
2854;SDS011;1435;49.472;10.940;2023-05-10T23:18:54;4.40;;;4.00;;
2854;SDS011;1435;49.472;10.940;2023-05-10T23:23:57;4.20;;;3.80;;
2854;SDS011;1435;49.472;10.940;2023-05-10T23:28:59;4.73;;;3.70;;
2854;SDS011;1435;49.472;10.940;2023-05-10T23:34:03;4.33;;;3.93;;
2854;SDS011;1435;49.472;10.940;2023-05-10T23:39:04;7.40;;;4.23;;
2854;SDS011;1435;49.472;10.940;2023-05-10T23:44:07;4.97;;;4.57;;
2854;SDS011;1435;49.472;10.940;2023-05-10T23:49:10;4.17;;;3.87;;
2854;SDS011;1435;49.472;10.940;2023-05-10T23:54:11;4.80;;;4.10;;
2854;SDS011;1435;49.472;10.940;2023-05-10T23:59:13;4.00;;;3.70;;
